Time;durP1;ratioP1;P1;durP2;ratioP2;P2;SDS_P1;SDS_P2;PMS_P1;PMS_P2;Temp;Humidity;BMP_temperature;BMP_pressure;BME280_temperature;BME280_humidity;BME280_pressure;Samples;Min_cycle;Max_cycle;Signal;HPM_P1;HPM_P2
2022/10/20 00:02:23;;;;;;;2.37;2.13;;;8.20;99.90;;;;;;4941737;29;20193;-73
2022/10/20 00:04:48;;;;;;;2.77;2.17;;;8.10;99.90;;;;;;4944485;29;20214;-73
2022/10/20 00:07:14;;;;;;;2.50;2.37;;;8.10;99.90;;;;;;4946695;29;20246;-72
2022/10/20 00:09:39;;;;;;;3.33;2.20;;;8.10;99.90;;;;;;4945066;29;20249;-72
2022/10/20 00:12:05;;;;;;;2.43;2.23;;;8.10;99.90;;;;;;4938897;29;20296;-72
2022/10/20 00:14:30;;;;;;;2.83;1.70;;;8.10;99.90;;;;;;4941196;29;20209;-72
2022/10/20 00:16:57;;;;;;;4.13;2.23;;;8.10;99.90;;;;;;4938976;29;20191;-72
2022/10/20 00:19:22;;;;;;;2.40;2.20;;;8.10;99.90;;;;;;4938383;29;20227;-73
2022/10/20 00:21:48;;;;;;;2.43;2.23;;;8.10;99.90;;;;;;4940113;29;20291;-72
2022/10/20 00:24:13;;;;;;;2.73;2.07;;;8.00;99.90;;;;;;4938311;29;20210;-70
2022/10/20 00:26:39;;;;;;;2.30;2.10;;;8.10;99.90;;;;;;4937815;29;20647;-70
2022/10/20 00:29:04;;;;;;;2.10;1.90;;;8.00;99.90;;;;;;4943568;29;20236;-71
2022/10/20 00:31:30;;;;;;;2.30;2.13;;;8.00;99.90;;;;;;4937360;29;20667;-71
2022/10/20 00:33:56;;;;;;;3.17;2.07;;;8.00;99.90;;;;;;4941311;29;20546;-71
2022/10/20 00:36:22;;;;;;;2.77;2.23;;;8.00;99.90;;;;;;4941057;29;20539;-72
2022/10/20 00:38:48;;;;;;;2.10;2.00;;;7.90;99.90;;;;;;4940620;29;20217;-72
2022/10/20 00:41:19;;;;;;;2.60;2.10;;;7.80;99.90;;;;;;4937089;29;20194;-72
2022/10/20 00:43:51;;;;;;;1.87;1.77;;;7.90;99.90;;;;;;4944904;29;20289;-71
2022/10/20 00:46:25;;;;;;;4.20;2.40;;;7.80;99.90;;;;;;4936637;29;20221;-73
2022/10/20 00:48:56;;;;;;;2.93;2.53;;;7.90;99.90;;;;;;4940090;29;20211;-73
2022/10/20 00:51:26;;;;;;;3.37;2.03;;;7.80;99.90;;;;;;4937116;29;20914;-75
2022/10/20 00:53:57;;;;;;;3.43;1.90;;;7.80;99.90;;;;;;4934548;28;20238;-73
2022/10/20 00:56:22;;;;;;;3.97;2.20;;;7.80;99.90;;;;;;4938342;29;20209;-72
2022/10/20 00:58:49;;;;;;;2.03;1.93;;;7.70;99.90;;;;;;4937128;29;20220;-72
2022/10/20 01:01:15;;;;;;;2.43;2.23;;;7.70;99.90;;;;;;4945141;29;20206;-72
2022/10/20 01:03:45;;;;;;;2.47;2.27;;;7.70;99.90;;;;;;4943561;29;20269;-73
2022/10/20 01:06:12;;;;;;;4.40;2.30;;;7.70;99.90;;;;;;4934577;29;20215;-69
2022/10/20 01:08:38;;;;;;;2.30;1.90;;;7.70;99.90;;;;;;4939671;29;20216;-71
2022/10/20 01:11:27;;;;;;;4.00;2.23;;;7.60;99.90;;;;;;4944161;29;20601;-72
2022/10/20 01:14:21;;;;;;;2.33;2.10;;;7.70;99.90;;;;;;4934197;29;20195;-72
2022/10/20 01:17:22;;;;;;;4.07;2.20;;;7.60;99.90;;;;;;4936894;29;20244;-71
2022/10/20 01:20:19;;;;;;;2.30;2.10;;;7.60;99.90;;;;;;4897943;29;20222;-75
2022/10/20 01:23:11;;;;;;;2.20;1.77;;;7.60;99.90;;;;;;4936952;29;20213;-73
2022/10/20 01:25:52;;;;;;;3.23;2.17;;;7.60;99.90;;;;;;4935304;29;20233;-73
2022/10/20 01:28:37;;;;;;;2.20;2.00;;;7.60;99.90;;;;;;4932755;29;20289;-73
2022/10/20 01:31:15;;;;;;;2.67;2.17;;;7.50;99.90;;;;;;4935843;29;20250;-73
2022/10/20 01:33:48;;;;;;;2.70;2.50;;;7.60;99.90;;;;;;4942797;29;20554;-73
2022/10/20 01:36:25;;;;;;;3.33;2.30;;;7.50;99.90;;;;;;4935620;29;20192;-72
2022/10/20 01:38:57;;;;;;;2.87;2.30;;;7.50;99.90;;;;;;4927929;29;20214;-73
2022/10/20 01:41:48;;;;;;;7.53;2.10;;;7.50;99.90;;;;;;4942332;29;20653;-74
2022/10/20 01:44:16;;;;;;;3.67;2.50;;;7.50;99.90;;;;;;4933933;29;20293;-74
2022/10/20 01:46:43;;;;;;;2.20;2.00;;;7.50;99.90;;;;;;4939820;29;20293;-74
2022/10/20 01:49:09;;;;;;;2.77;2.50;;;7.50;99.90;;;;;;4937916;29;20295;-74
2022/10/20 01:51:35;;;;;;;4.80;2.43;;;7.50;99.90;;;;;;4936364;29;20281;-73
2022/10/20 01:54:01;;;;;;;4.27;2.00;;;7.50;99.90;;;;;;4943417;28;20637;-72
2022/10/20 01:56:41;;;;;;;2.30;2.10;;;7.50;99.90;;;;;;4946303;29;20224;-73
2022/10/20 01:59:52;;;;;;;4.20;1.80;;;7.50;99.90;;;;;;4937061;29;20558;-71
2022/10/20 02:02:38;;;;;;;3.23;2.00;;;7.50;99.90;;;;;;4891463;29;20232;-73
2022/10/20 02:05:32;;;;;;;3.03;2.23;;;7.40;99.90;;;;;;4937285;29;20325;-73
2022/10/20 02:08:12;;;;;;;3.30;2.17;;;7.40;99.90;;;;;;4933244;29;20190;-72
2022/10/20 02:10:48;;;;;;;2.37;2.17;;;7.40;99.90;;;;;;4934838;29;20202;-71
2022/10/20 02:13:17;;;;;;;3.10;2.20;;;7.40;99.90;;;;;;4927260;29;20206;-71
2022/10/20 02:15:47;;;;;;;1.87;1.50;;;7.40;99.90;;;;;;4944982;29;20194;-71
2022/10/20 02:18:16;;;;;;;2.30;2.10;;;7.40;99.90;;;;;;4938300;29;20206;-71
2022/10/20 02:20:46;;;;;;;2.80;2.30;;;7.40;99.90;;;;;;4944702;29;20216;-70
2022/10/20 02:23:11;;;;;;;3.20;2.40;;;7.40;99.90;;;;;;4932325;29;20190;-69
2022/10/20 02:25:39;;;;;;;3.47;2.40;;;7.30;99.90;;;;;;4935424;29;20409;-74
2022/10/20 02:28:09;;;;;;;4.23;2.07;;;7.30;99.90;;;;;;4933923;29;20194;-74
2022/10/20 02:30:36;;;;;;;4.53;2.23;;;7.30;99.90;;;;;;4934022;29;20209;-73
2022/10/20 02:33:02;;;;;;;3.90;2.57;;;7.30;99.90;;;;;;4931070;29;20215;-74
2022/10/20 02:35:30;;;;;;;2.20;1.77;;;7.20;99.90;;;;;;4936293;29;20202;-75
2022/10/20 02:37:57;;;;;;;2.23;2.03;;;7.20;99.90;;;;;;4931873;29;20194;-74
2022/10/20 02:40:23;;;;;;;2.73;2.40;;;7.20;99.90;;;;;;4938986;29;20214;-76
2022/10/20 02:42:48;;;;;;;2.50;2.13;;;7.20;99.90;;;;;;4934716;29;20192;-75
2022/10/20 02:45:14;;;;;;;1.87;1.77;;;7.20;99.90;;;;;;4939656;29;20210;-75
2022/10/20 02:47:40;;;;;;;2.77;2.50;;;7.10;99.90;;;;;;4934965;29;20222;-75
2022/10/20 02:50:06;;;;;;;2.17;1.70;;;7.10;99.90;;;;;;4941597;29;20198;-75
2022/10/20 02:52:31;;;;;;;4.97;2.50;;;7.10;99.90;;;;;;4935418;28;20221;-74
2022/10/20 02:54:57;;;;;;;2.33;2.13;;;7.10;99.90;;;;;;4938239;29;20628;-74
2022/10/20 02:57:23;;;;;;;2.57;1.97;;;7.10;99.90;;;;;;4935949;29;20199;-75
2022/10/20 02:59:48;;;;;;;2.30;2.10;;;7.10;99.90;;;;;;4934735;29;20207;-75
2022/10/20 03:02:13;;;;;;;3.37;2.07;;;7.00;99.90;;;;;;4936735;29;20206;-74
2022/10/20 03:04:39;;;;;;;3.50;2.27;;;7.00;99.90;;;;;;4941328;29;20233;-75
2022/10/20 03:07:04;;;;;;;3.67;2.10;;;7.00;99.90;;;;;;4934941;29;20273;-75
2022/10/20 03:09:30;;;;;;;3.30;2.17;;;7.00;99.90;;;;;;4938742;29;20198;-75
2022/10/20 03:11:55;;;;;;;3.57;2.53;;;7.00;99.90;;;;;;4936101;29;20199;-74
2022/10/20 03:14:21;;;;;;;3.17;2.47;;;7.00;99.90;;;;;;4939739;29;20206;-75
2022/10/20 03:16:46;;;;;;;2.63;2.07;;;7.00;99.90;;;;;;4940340;29;20737;-75
2022/10/20 03:19:12;;;;;;;3.10;2.60;;;6.90;99.90;;;;;;4938662;29;20217;-75
2022/10/20 03:21:38;;;;;;;3.67;2.43;;;6.90;99.90;;;;;;4944538;29;20618;-73
2022/10/20 03:24:03;;;;;;;2.27;2.17;;;6.90;99.90;;;;;;4940335;29;20314;-75
2022/10/20 03:26:29;;;;;;;2.57;1.93;;;6.90;99.90;;;;;;4935586;29;20223;-75
2022/10/20 03:28:54;;;;;;;2.40;2.23;;;6.90;99.90;;;;;;4941004;29;20241;-75
2022/10/20 03:31:20;;;;;;;3.67;2.97;;;6.90;99.90;;;;;;4935106;28;20190;-76
2022/10/20 03:33:45;;;;;;;3.30;2.60;;;6.90;99.90;;;;;;4944875;29;20201;-75
2022/10/20 03:36:11;;;;;;;3.10;2.20;;;6.90;99.90;;;;;;4947424;29;20194;-75
2022/10/20 03:38:39;;;;;;;4.67;2.77;;;6.80;99.90;;;;;;4945876;29;20191;-74
2022/10/20 03:41:04;;;;;;;4.53;2.63;;;6.80;99.90;;;;;;4930065;29;20209;-74
2022/10/20 03:43:30;;;;;;;5.50;2.90;;;6.80;99.90;;;;;;4935913;29;20540;-74
2022/10/20 03:46:04;;;;;;;2.63;2.43;;;6.80;99.90;;;;;;4941879;29;20233;-74
2022/10/20 03:48:29;;;;;;;3.77;2.60;;;6.80;99.90;;;;;;4936352;29;20245;-75
2022/10/20 03:50:55;;;;;;;4.33;2.50;;;6.70;99.90;;;;;;4937308;29;20198;-72
2022/10/20 03:53:20;;;;;;;2.30;2.10;;;6.70;99.90;;;;;;4937727;28;20270;-73
2022/10/20 03:55:46;;;;;;;2.57;2.10;;;6.70;99.90;;;;;;4935065;29;20641;-75
2022/10/20 03:58:11;;;;;;;2.77;2.57;;;6.70;99.90;;;;;;4940105;29;20189;-72
2022/10/20 04:00:37;;;;;;;3.57;2.53;;;6.70;99.90;;;;;;4938456;29;20210;-74
2022/10/20 04:03:02;;;;;;;3.03;2.60;;;6.60;99.90;;;;;;4940190;29;20189;-76
2022/10/20 04:05:28;;;;;;;3.13;2.57;;;6.70;99.90;;;;;;4942947;29;20312;-75
2022/10/20 04:07:53;;;;;;;3.47;2.97;;;6.60;99.90;;;;;;4938574;29;20688;-79
2022/10/20 04:10:19;;;;;;;4.13;2.40;;;6.60;99.90;;;;;;4944634;29;20901;-69
2022/10/20 04:12:44;;;;;;;2.90;2.67;;;6.60;99.90;;;;;;4938080;29;20183;-71
2022/10/20 04:15:10;;;;;;;3.07;2.63;;;6.60;99.90;;;;;;4928918;29;20617;-69
2022/10/20 04:17:36;;;;;;;4.33;2.77;;;6.60;99.90;;;;;;4936491;29;20187;-70
2022/10/20 04:20:03;;;;;;;3.50;3.20;;;6.60;99.90;;;;;;4940205;29;20624;-70
2022/10/20 04:22:28;;;;;;;3.70;3.23;;;6.50;99.90;;;;;;4937944;29;20202;-71
2022/10/20 04:24:54;;;;;;;3.17;2.77;;;6.50;99.90;;;;;;4940680;29;20206;-72
2022/10/20 04:27:19;;;;;;;3.17;2.80;;;6.50;99.90;;;;;;4937140;29;20689;-75
2022/10/20 04:29:46;;;;;;;3.80;3.20;;;6.50;99.90;;;;;;4929694;29;20195;-71
2022/10/20 04:32:11;;;;;;;6.67;3.20;;;6.50;99.90;;;;;;4937326;29;20627;-71
2022/10/20 04:34:36;;;;;;;3.93;3.37;;;6.50;99.90;;;;;;4942200;29;20198;-72
2022/10/20 04:37:02;;;;;;;3.50;3.20;;;6.50;99.90;;;;;;4941480;29;20294;-72
2022/10/20 04:39:27;;;;;;;3.40;3.00;;;6.50;99.90;;;;;;4947605;29;20194;-74
2022/10/20 04:41:53;;;;;;;3.50;3.03;;;6.50;99.90;;;;;;4947451;29;20198;-74
2022/10/20 04:44:18;;;;;;;3.90;3.13;;;6.50;99.90;;;;;;4944825;28;20520;-74
2022/10/20 04:46:44;;;;;;;5.07;3.40;;;6.50;99.90;;;;;;4947764;29;20241;-75
2022/10/20 04:49:09;;;;;;;4.17;3.77;;;6.40;99.90;;;;;;4937118;29;20704;-75
2022/10/20 04:51:35;;;;;;;4.60;3.77;;;6.40;99.90;;;;;;4947639;29;20198;-76
2022/10/20 04:54:00;;;;;;;4.37;3.37;;;6.40;99.90;;;;;;4933558;29;20222;-76
2022/10/20 04:56:26;;;;;;;8.67;3.40;;;6.40;99.90;;;;;;4947578;29;20191;-77
2022/10/20 04:58:54;;;;;;;5.90;4.73;;;6.40;99.90;;;;;;4936357;29;20233;-76
2022/10/20 05:01:23;;;;;;;4.40;4.00;;;6.40;99.90;;;;;;4929947;29;20249;-76
2022/10/20 05:03:49;;;;;;;5.07;3.80;;;6.40;99.90;;;;;;4943457;29;20279;-77
2022/10/20 05:06:17;;;;;;;4.30;3.27;;;6.40;99.90;;;;;;4947039;29;20226;-77
2022/10/20 05:08:45;;;;;;;4.77;4.03;;;6.30;99.90;;;;;;4937952;29;20228;-76
2022/10/20 05:11:11;;;;;;;5.63;3.57;;;6.30;99.90;;;;;;4939353;29;20562;-77
2022/10/20 05:13:37;;;;;;;4.53;4.07;;;6.30;99.90;;;;;;4937070;29;20198;-77
2022/10/20 05:16:03;;;;;;;7.57;4.37;;;6.20;99.90;;;;;;4935586;29;20247;-76
2022/10/20 05:18:29;;;;;;;6.67;3.53;;;6.30;99.90;;;;;;4936400;29;20681;-77
2022/10/20 05:20:55;;;;;;;4.80;3.67;;;6.20;99.90;;;;;;4937213;29;20269;-77
2022/10/20 05:23:21;;;;;;;4.07;3.53;;;6.20;99.90;;;;;;4946120;29;20673;-77
2022/10/20 05:25:47;;;;;;;4.97;4.13;;;6.20;99.90;;;;;;4940542;29;20305;-76
2022/10/20 05:28:12;;;;;;;7.57;4.70;;;6.20;99.90;;;;;;4936922;29;20257;-77
2022/10/20 05:30:41;;;;;;;6.00;4.20;;;6.30;99.90;;;;;;4939564;29;20222;-77
2022/10/20 05:33:07;;;;;;;5.90;3.83;;;6.20;99.90;;;;;;4937264;29;20198;-76
2022/10/20 05:35:32;;;;;;;7.67;4.97;;;6.20;99.90;;;;;;4943205;29;20214;-77
2022/10/20 05:37:58;;;;;;;8.00;4.30;;;6.20;99.90;;;;;;4941463;29;20199;-76
2022/10/20 05:40:23;;;;;;;9.43;5.33;;;6.20;99.90;;;;;;4934033;29;20736;-77
2022/10/20 05:42:49;;;;;;;6.73;5.00;;;6.20;99.90;;;;;;4937485;29;20230;-77
2022/10/20 05:45:15;;;;;;;5.20;3.77;;;6.20;99.90;;;;;;4942080;29;20206;-76
2022/10/20 05:47:41;;;;;;;4.60;4.20;;;6.30;99.90;;;;;;4935061;29;20218;-72
2022/10/20 05:50:08;;;;;;;5.00;4.30;;;6.30;99.90;;;;;;4930222;29;20213;-74
2022/10/20 05:52:34;;;;;;;4.87;4.07;;;6.30;99.90;;;;;;4945123;28;20673;-74
2022/10/20 05:54:59;;;;;;;7.57;4.10;;;6.20;99.90;;;;;;4939111;28;20331;-73
2022/10/20 05:57:25;;;;;;;8.33;4.47;;;6.30;99.90;;;;;;4930207;29;20681;-72
2022/10/20 05:59:51;;;;;;;8.13;4.73;;;6.20;99.90;;;;;;4925062;29;20230;-72
2022/10/20 06:02:16;;;;;;;5.83;4.00;;;6.20;99.90;;;;;;4937227;29;20202;-71
2022/10/20 06:04:42;;;;;;;5.43;4.73;;;6.30;99.90;;;;;;4940388;29;20210;-73
2022/10/20 06:07:10;;;;;;;10.07;4.57;;;6.30;99.90;;;;;;4919857;29;20623;-73
2022/10/20 06:09:37;;;;;;;7.00;4.33;;;6.30;99.90;;;;;;4930859;29;20217;-76
2022/10/20 06:12:03;;;;;;;8.43;4.50;;;6.30;99.90;;;;;;4944088;29;20190;-69
2022/10/20 06:14:29;;;;;;;6.70;4.63;;;6.30;99.90;;;;;;4928601;29;20202;-77
2022/10/20 06:16:55;;;;;;;6.37;4.20;;;6.30;99.90;;;;;;4935321;29;20229;-75
2022/10/20 06:19:21;;;;;;;6.40;4.40;;;6.30;99.90;;;;;;4935599;29;20602;-74
2022/10/20 06:21:47;;;;;;;9.93;5.17;;;6.30;99.90;;;;;;4935642;29;20203;-76
2022/10/20 06:24:12;;;;;;;9.37;4.80;;;6.30;99.90;;;;;;4936605;29;20199;-74
2022/10/20 06:26:38;;;;;;;10.63;4.70;;;6.30;99.90;;;;;;4934757;29;20661;-74
2022/10/20 06:29:10;;;;;;;6.20;5.17;;;6.40;99.90;;;;;;4929048;29;20613;-74
2022/10/20 06:31:38;;;;;;;7.07;4.50;;;6.40;99.90;;;;;;4928452;29;20194;-74
2022/10/20 06:34:06;;;;;;;8.40;4.30;;;6.40;99.90;;;;;;4927220;29;20238;-74
2022/10/20 06:36:37;;;;;;;11.67;6.00;;;6.40;99.90;;;;;;4939765;29;20182;-73
2022/10/20 06:39:04;;;;;;;5.07;4.40;;;6.50;99.90;;;;;;4944865;29;20194;-83
2022/10/20 06:41:31;;;;;;;6.70;5.27;;;6.60;99.90;;;;;;4936318;29;20190;-74
2022/10/20 06:43:58;;;;;;;6.07;4.80;;;6.70;99.90;;;;;;4941747;29;20198;-73
2022/10/20 06:46:25;;;;;;;6.20;4.73;;;6.80;99.90;;;;;;4938771;29;20357;-72
2022/10/20 06:48:51;;;;;;;10.67;4.60;;;7.00;99.90;;;;;;4944859;29;20198;-73
2022/10/20 06:51:18;;;;;;;9.60;5.00;;;7.10;99.90;;;;;;4935254;29;20292;-74
2022/10/20 06:53:44;;;;;;;7.73;4.60;;;7.20;99.90;;;;;;4938152;28;20207;-75
2022/10/20 06:56:12;;;;;;;8.50;5.07;;;7.30;99.90;;;;;;4917147;29;20203;-74
2022/10/20 06:58:40;;;;;;;5.60;4.73;;;7.40;99.90;;;;;;4932234;29;20701;-73
2022/10/20 07:01:09;;;;;;;7.73;5.10;;;7.50;99.90;;;;;;4939523;29;20253;-73
2022/10/20 07:03:36;;;;;;;10.30;4.87;;;7.50;99.90;;;;;;4938824;29;20534;-72
2022/10/20 07:06:02;;;;;;;8.73;5.77;;;7.60;99.90;;;;;;4940237;28;20345;-73
2022/10/20 07:08:30;;;;;;;7.40;5.53;;;7.60;99.90;;;;;;4938096;29;20194;-73
2022/10/20 07:11:03;;;;;;;6.77;4.80;;;7.70;99.90;;;;;;4943400;29;20191;-73
2022/10/20 07:13:29;;;;;;;5.77;5.00;;;7.80;99.90;;;;;;4938231;29;20254;-71
2022/10/20 07:15:56;;;;;;;8.40;5.60;;;7.90;99.90;;;;;;4939792;29;20210;-70
2022/10/20 07:18:22;;;;;;;6.67;5.03;;;7.90;99.90;;;;;;4947745;29;20217;-71
2022/10/20 07:20:48;;;;;;;8.70;5.73;;;8.00;99.90;;;;;;4942018;29;20201;-69
2022/10/20 07:23:14;;;;;;;7.57;5.40;;;8.10;99.90;;;;;;4937117;29;20284;-74
2022/10/20 07:25:39;;;;;;;7.03;5.30;;;8.10;99.90;;;;;;4937328;29;20214;-70
2022/10/20 07:28:05;;;;;;;6.03;5.10;;;8.20;99.90;;;;;;4937187;29;20795;-82
2022/10/20 07:30:30;;;;;;;6.87;4.90;;;8.30;99.90;;;;;;4937293;29;20205;-71
2022/10/20 07:32:56;;;;;;;7.03;5.20;;;8.30;99.90;;;;;;4940101;29;20269;-70
2022/10/20 07:35:21;;;;;;;5.90;5.33;;;8.40;99.90;;;;;;4944034;29;20202;-70
2022/10/20 07:37:47;;;;;;;8.63;5.53;;;8.50;99.90;;;;;;4946487;29;20967;-70
2022/10/20 07:40:12;;;;;;;8.73;4.63;;;8.50;99.90;;;;;;4930548;29;20230;-72
2022/10/20 07:42:38;;;;;;;8.00;5.60;;;8.70;99.90;;;;;;4938090;29;20688;-71
2022/10/20 07:45:04;;;;;;;9.00;4.73;;;8.70;99.90;;;;;;4940091;29;20284;-71
2022/10/20 07:47:29;;;;;;;7.30;4.60;;;8.80;99.90;;;;;;4946627;29;20230;-72
2022/10/20 07:49:54;;;;;;;8.90;5.10;;;8.90;99.90;;;;;;4932161;29;20199;-73
2022/10/20 07:52:20;;;;;;;8.27;5.10;;;8.90;99.90;;;;;;4943163;28;20556;-75
2022/10/20 07:54:45;;;;;;;7.10;4.83;;;9.00;99.90;;;;;;4934099;29;20957;-75
2022/10/20 07:57:11;;;;;;;11.37;4.67;;;9.10;99.90;;;;;;4927626;29;20195;-79
2022/10/20 07:59:36;;;;;;;6.70;4.70;;;9.20;99.90;;;;;;4942890;29;20641;-77
2022/10/20 08:02:02;;;;;;;9.90;5.00;;;9.20;99.90;;;;;;4943814;29;20264;-74
2022/10/20 08:04:30;;;;;;;4.93;4.43;;;9.30;99.90;;;;;;4941000;29;20218;-72
2022/10/20 08:06:56;;;;;;;7.67;4.43;;;9.40;99.90;;;;;;4946612;29;20230;-71
2022/10/20 08:09:22;;;;;;;6.50;4.73;;;9.50;99.90;;;;;;4940854;29;20805;-74
2022/10/20 08:11:47;;;;;;;9.27;5.40;;;9.50;99.90;;;;;;4936485;29;20249;-70
2022/10/20 08:14:12;;;;;;;9.63;5.83;;;9.50;99.90;;;;;;4937393;29;20601;-71
2022/10/20 08:16:38;;;;;;;8.37;5.20;;;9.50;99.90;;;;;;4938906;29;20211;-74
2022/10/20 08:19:03;;;;;;;8.30;5.57;;;9.60;99.90;;;;;;4940697;28;20271;-72
2022/10/20 08:21:29;;;;;;;7.23;5.47;;;9.60;99.90;;;;;;4936083;29;20270;-72
2022/10/20 08:23:54;;;;;;;5.43;4.73;;;9.70;99.90;;;;;;4938709;29;20539;-71
2022/10/20 08:26:23;;;;;;;5.97;4.57;;;9.80;99.90;;;;;;4941910;29;20211;-71
2022/10/20 08:28:51;;;;;;;5.57;4.63;;;9.90;99.90;;;;;;4938320;29;20688;-71
2022/10/20 08:31:17;;;;;;;6.70;4.73;;;9.90;99.90;;;;;;4936784;29;20235;-75
2022/10/20 08:33:43;;;;;;;4.67;4.20;;;10.00;99.90;;;;;;4936819;29;20661;-74
2022/10/20 08:36:11;;;;;;;7.23;4.47;;;10.10;99.90;;;;;;4940397;29;20263;-79
2022/10/20 08:38:37;;;;;;;6.13;5.13;;;10.10;99.90;;;;;;4938982;29;20193;-75
2022/10/20 08:41:05;;;;;;;7.80;4.47;;;10.20;99.90;;;;;;4935106;29;20686;-75
2022/10/20 08:43:34;;;;;;;5.97;4.23;;;10.30;99.90;;;;;;4946080;29;20272;-74
2022/10/20 08:45:59;;;;;;;4.90;4.37;;;10.40;99.90;;;;;;4941328;29;20249;-74
2022/10/20 08:48:28;;;;;;;6.27;4.67;;;10.50;99.90;;;;;;4941894;29;20223;-75
2022/10/20 08:50:54;;;;;;;4.53;3.57;;;10.60;99.90;;;;;;4941892;29;20292;-79
2022/10/20 08:53:22;;;;;;;6.10;3.80;;;10.70;99.90;;;;;;4940829;28;20243;-75
2022/10/20 08:55:49;;;;;;;8.50;4.03;;;10.70;99.90;;;;;;4936172;29;20287;-75
2022/10/20 08:58:20;;;;;;;6.40;3.73;;;10.80;99.90;;;;;;4938663;29;20294;-75
2022/10/20 09:00:47;;;;;;;6.17;3.53;;;10.80;99.90;;;;;;4933350;29;20740;-73
2022/10/20 09:03:21;;;;;;;4.23;3.77;;;10.90;99.90;;;;;;4938049;29;20210;-74
2022/10/20 09:06:11;;;;;;;6.27;4.20;;;11.00;99.90;;;;;;4936886;29;20773;-74
2022/10/20 09:08:38;;;;;;;6.37;3.90;;;11.10;99.90;;;;;;4935695;29;20252;-74
2022/10/20 09:11:07;;;;;;;4.93;3.50;;;11.30;99.90;;;;;;4937252;29;20259;-73
2022/10/20 09:13:35;;;;;;;9.93;4.97;;;11.50;99.90;;;;;;4936787;29;20330;-75
2022/10/20 09:16:05;;;;;;;4.37;3.63;;;11.60;99.90;;;;;;4941909;29;20213;-80
2022/10/20 09:18:33;;;;;;;5.00;4.00;;;11.60;99.90;;;;;;4941258;29;20202;-76
2022/10/20 09:21:20;;;;;;;6.43;4.00;;;11.60;99.90;;;;;;4934297;29;20224;-74
2022/10/20 09:23:51;;;;;;;6.57;3.90;;;11.60;99.90;;;;;;4936651;29;20201;-73
2022/10/20 09:26:19;;;;;;;5.53;3.40;;;11.60;99.90;;;;;;4936297;29;20220;-73
2022/10/20 09:28:50;;;;;;;4.63;3.93;;;11.70;99.90;;;;;;4933368;29;20415;-75
2022/10/20 09:31:20;;;;;;;6.57;4.20;;;11.80;99.90;;;;;;4936697;29;20206;-76
2022/10/20 09:33:46;;;;;;;7.33;3.83;;;11.90;99.90;;;;;;4935585;29;20191;-73
2022/10/20 09:36:15;;;;;;;5.50;4.03;;;12.00;99.90;;;;;;4936967;29;20210;-74
2022/10/20 09:38:45;;;;;;;3.97;3.60;;;12.10;99.90;;;;;;4930974;29;20201;-75
2022/10/20 09:41:16;;;;;;;4.43;3.67;;;12.10;99.90;;;;;;4925163;29;20202;-74
2022/10/20 09:43:53;;;;;;;5.10;3.67;;;12.00;99.90;;;;;;4926873;29;20188;-75
2022/10/20 09:46:43;;;;;;;7.50;4.53;;;12.10;99.90;;;;;;4930303;29;20253;-79
2022/10/20 09:49:21;;;;;;;5.63;4.37;;;12.10;99.90;;;;;;4938551;29;20231;-76
2022/10/20 09:51:46;;;;;;;6.50;4.17;;;12.20;99.90;;;;;;4936334;29;20232;-76
2022/10/20 09:54:18;;;;;;;5.53;3.90;;;12.20;99.90;;;;;;4939502;29;20241;-75
2022/10/20 09:56:45;;;;;;;7.23;3.80;;;12.40;99.90;;;;;;4943785;29;20287;-74
2022/10/20 09:59:23;;;;;;;5.60;4.23;;;12.40;99.90;;;;;;4936208;29;20238;-76
2022/10/20 10:02:03;;;;;;;5.87;4.50;;;12.50;99.90;;;;;;4934174;29;20219;-67
2022/10/20 10:04:32;;;;;;;7.87;4.33;;;12.50;99.90;;;;;;4939516;29;20419;-77
2022/10/20 10:06:57;;;;;;;10.03;4.00;;;12.50;99.90;;;;;;4934276;29;20309;-77
2022/10/20 10:09:58;;;;;;;7.03;6.20;;;12.50;99.90;;;;;;4939736;29;20367;-79
2022/10/20 10:12:26;;;;;;;7.63;3.93;;;12.60;99.90;;;;;;4938057;29;20654;-79
2022/10/20 10:14:57;;;;;;;4.00;3.53;;;12.70;99.90;;;;;;4928370;29;20223;-82
2022/10/20 10:17:35;;;;;;;5.07;3.77;;;12.80;99.90;;;;;;4940427;29;20550;-79
2022/10/20 10:20:05;;;;;;;10.43;7.67;;;12.90;99.90;;;;;;4936897;29;20285;-75
2022/10/20 10:22:31;;;;;;;4.20;3.80;;;13.10;99.90;;;;;;4926743;29;20212;-78
2022/10/20 10:24:58;;;;;;;5.83;3.13;;;13.20;99.90;;;;;;4926578;29;20199;-76
2022/10/20 10:27:25;;;;;;;6.80;4.77;;;13.30;99.90;;;;;;4930331;29;20260;-74
2022/10/20 10:29:51;;;;;;;5.47;4.27;;;13.30;99.90;;;;;;4929105;29;20187;-77
2022/10/20 10:32:23;;;;;;;3.83;3.10;;;13.40;99.90;;;;;;4926483;29;20199;-77
2022/10/20 10:35:23;;;;;;;3.60;2.60;;;13.60;99.90;;;;;;4925590;29;20191;-79
2022/10/20 10:37:49;;;;;;;3.83;3.20;;;13.70;99.90;;;;;;4924836;29;20632;-79
2022/10/20 10:40:20;;;;;;;3.53;3.20;;;13.80;99.90;;;;;;4926883;29;20210;-76
2022/10/20 10:43:18;;;;;;;3.43;3.13;;;13.90;99.90;;;;;;4930328;29;20202;-79
2022/10/20 10:45:51;;;;;;;3.77;3.33;;;14.00;99.90;;;;;;4930013;29;20223;-75
2022/10/20 10:48:36;;;;;;;4.80;3.37;;;14.00;99.90;;;;;;4932820;29;20266;-79
2022/10/20 10:51:09;;;;;;;5.03;2.90;;;14.10;99.90;;;;;;4932124;29;20289;-78
2022/10/20 10:53:45;;;;;;;3.37;2.90;;;14.30;99.90;;;;;;4929059;29;20242;-78
2022/10/20 10:56:33;;;;;;;6.47;3.07;;;14.40;99.90;;;;;;4928326;29;20212;-78
2022/10/20 10:59:05;;;;;;;5.37;3.10;;;14.60;99.90;;;;;;4945811;29;20209;-78
2022/10/20 11:01:57;;;;;;;4.07;2.67;;;14.60;99.90;;;;;;4943050;29;20210;-79
2022/10/20 11:04:51;;;;;;;2.77;2.33;;;14.60;99.90;;;;;;4936963;29;20210;-82
2022/10/20 11:07:42;;;;;;;4.50;2.80;;;14.60;99.90;;;;;;4929833;29;20728;-77
2022/10/20 11:10:20;;;;;;;4.13;2.70;;;14.70;99.90;;;;;;4928277;29;20282;-78
2022/10/20 11:13:04;;;;;;;2.87;2.30;;;14.80;99.90;;;;;;4928689;29;20194;-77
2022/10/20 11:15:49;;;;;;;2.67;2.47;;;14.90;99.90;;;;;;4929559;29;20219;-73
2022/10/20 11:18:35;;;;;;;3.80;3.10;;;15.10;99.90;;;;;;4927893;29;20198;-73
2022/10/20 11:21:27;;;;;;;5.20;3.00;;;15.20;99.90;;;;;;4926124;29;20199;-72
2022/10/20 11:24:16;;;;;;;5.17;2.63;;;15.30;99.90;;;;;;4931067;29;20195;-75
2022/10/20 11:26:49;;;;;;;4.23;2.60;;;15.50;99.90;;;;;;4940840;29;20283;-89
2022/10/20 11:29:40;;;;;;;2.80;2.40;;;15.60;99.90;;;;;;4934725;29;20214;-79
2022/10/20 11:32:20;;;;;;;5.93;3.53;;;15.80;99.50;;;;;;4927266;29;20273;-78
2022/10/20 11:35:21;;;;;;;3.30;2.80;;;15.90;99.10;;;;;;4930387;29;20190;-70
2022/10/20 11:38:21;;;;;;;4.07;2.60;;;16.20;98.90;;;;;;4932275;29;20186;-71
2022/10/20 11:40:53;;;;;;;3.57;2.40;;;16.50;98.60;;;;;;4928271;29;20202;-72
2022/10/20 11:43:45;;;;;;;3.07;2.20;;;16.70;97.70;;;;;;4929042;29;20195;-71
2022/10/20 11:46:15;;;;;;;3.37;2.70;;;17.00;97.60;;;;;;4933164;29;20233;-70
2022/10/20 11:48:55;;;;;;;3.63;2.70;;;17.10;96.90;;;;;;4939778;29;20561;-73
2022/10/20 11:51:30;;;;;;;3.67;2.53;;;17.30;96.30;;;;;;4941050;29;20580;-70
2022/10/20 11:54:40;;;;;;;2.63;2.40;;;17.50;95.80;;;;;;4945585;28;20205;-73
2022/10/20 11:57:44;;;;;;;3.57;2.67;;;17.60;95.10;;;;;;4935105;29;20669;-73
2022/10/20 12:00:19;;;;;;;3.93;2.10;;;17.70;94.50;;;;;;4928310;29;20201;-72
2022/10/20 12:03:24;;;;;;;3.97;2.03;;;17.70;94.10;;;;;;4946549;29;20618;-77
2022/10/20 12:06:00;;;;;;;2.90;2.60;;;17.70;94.30;;;;;;4936229;29;20233;-74
2022/10/20 12:08:55;;;;;;;2.50;2.30;;;17.80;93.90;;;;;;4929581;29;20277;-75
2022/10/20 12:11:27;;;;;;;2.83;2.10;;;17.90;93.70;;;;;;4941167;29;20209;-73
2022/10/20 12:14:13;;;;;;;3.73;2.27;;;18.00;93.90;;;;;;4946474;29;20210;-73
2022/10/20 12:16:53;;;;;;;2.47;2.27;;;18.30;92.90;;;;;;4921678;29;20212;-74
2022/10/20 12:19:40;;;;;;;1.93;1.73;;;18.50;91.90;;;;;;4937800;29;20206;-74
2022/10/20 12:22:14;;;;;;;3.20;1.80;;;18.50;91.50;;;;;;4941943;29;20302;-74
2022/10/20 12:25:03;;;;;;;3.17;1.97;;;18.70;90.80;;;;;;4943430;29;20614;-72
2022/10/20 12:27:29;;;;;;;4.00;2.20;;;18.90;90.50;;;;;;4943599;29;20737;-73
2022/10/20 12:30:02;;;;;;;5.40;2.23;;;19.10;90.40;;;;;;4934970;29;20675;-72
2022/10/20 12:32:28;;;;;;;2.20;2.00;;;19.10;88.90;;;;;;4940623;29;20209;-71
2022/10/20 12:35:02;;;;;;;2.73;2.00;;;19.10;89.10;;;;;;4937468;29;20200;-73
2022/10/20 12:37:30;;;;;;;3.00;1.90;;;19.20;86.70;;;;;;4928554;29;20222;-74
2022/10/20 12:40:18;;;;;;;3.23;1.80;;;19.40;86.90;;;;;;4946297;29;20552;-74
2022/10/20 12:42:49;;;;;;;2.10;1.90;;;19.60;86.70;;;;;;4931991;29;20204;-73
2022/10/20 12:45:18;;;;;;;2.67;2.43;;;19.90;83.60;;;;;;4942953;29;20232;-72
2022/10/20 12:48:00;;;;;;;2.77;2.10;;;19.90;82.50;;;;;;4930706;29;20239;-76
2022/10/20 12:50:39;;;;;;;2.60;2.33;;;19.90;82.70;;;;;;4932413;29;20210;-74
2022/10/20 12:53:16;;;;;;;3.70;2.50;;;19.90;83.20;;;;;;4945100;28;20254;-75
2022/10/20 12:55:45;;;;;;;2.27;2.07;;;20.10;84.00;;;;;;4931288;29;20205;-75
2022/10/20 12:58:32;;;;;;;2.03;1.90;;;20.30;80.60;;;;;;4943187;29;20200;-75
2022/10/20 13:00:57;;;;;;;2.20;2.00;;;20.40;80.20;;;;;;4933026;29;20260;-75
2022/10/20 13:03:38;;;;;;;3.33;2.03;;;20.50;78.10;;;;;;4939523;29;20666;-75
2022/10/20 13:06:22;;;;;;;4.97;2.23;;;20.60;78.90;;;;;;4940907;28;20265;-75
2022/10/20 13:09:19;;;;;;;2.40;2.07;;;20.70;77.50;;;;;;4925365;29;20579;-76
2022/10/20 13:11:55;;;;;;;2.03;1.87;;;20.80;76.20;;;;;;4924529;29;20241;-76
2022/10/20 13:14:34;;;;;;;2.60;2.40;;;20.90;76.90;;;;;;4944311;29;20679;-75